createdAt,value
2022-10-11T00:00:12.298Z,35
2022-10-11T00:01:16.697Z,34
2022-10-11T00:02:20.874Z,25
2022-10-11T00:03:25.994Z,36
2022-10-11T00:04:31.031Z,29
2022-10-11T00:05:35.327Z,34
2022-10-11T00:06:39.853Z,29
2022-10-11T00:07:44.802Z,40
2022-10-11T00:08:49.199Z,37
2022-10-11T00:09:53.640Z,28
2022-10-11T00:10:58.726Z,34
2022-10-11T00:12:04.294Z,37
2022-10-11T00:13:08.717Z,32
2022-10-11T00:14:13.247Z,29
2022-10-11T00:15:17.522Z,32
2022-10-11T00:16:21.814Z,31
2022-10-11T00:17:26.071Z,31
2022-10-11T00:18:30.278Z,31
2022-10-11T00:19:34.650Z,32
2022-10-11T00:20:39.175Z,36
2022-10-11T00:21:43.990Z,33
2022-10-11T00:22:48.255Z,34
2022-10-11T00:23:52.454Z,29
2022-10-11T00:24:56.682Z,28
2022-10-11T00:26:01.406Z,30
2022-10-11T00:27:05.510Z,25
2022-10-11T00:28:10.438Z,32
2022-10-11T00:29:14.938Z,29
2022-10-11T00:30:19.951Z,32
2022-10-11T00:31:24.502Z,30
2022-10-11T00:32:28.811Z,43
2022-10-11T00:33:35.704Z,36
2022-10-11T00:34:40.091Z,36
2022-10-11T00:35:44.330Z,29
2022-10-11T00:36:49.763Z,34
2022-10-11T00:37:54.451Z,29
2022-10-11T00:38:59.119Z,30
2022-10-11T00:40:04.234Z,30
2022-10-11T00:41:08.792Z,33
2022-10-11T00:42:14.130Z,35
2022-10-11T00:43:18.391Z,26
2022-10-11T00:44:23.402Z,30
2022-10-11T00:45:27.686Z,39
2022-10-11T00:46:31.970Z,30
2022-10-11T00:47:36.338Z,28
2022-10-11T00:48:40.590Z,35
2022-10-11T00:49:50.531Z,33
2022-10-11T00:50:57.388Z,28
2022-10-11T00:52:02.446Z,31
2022-10-11T00:53:06.691Z,26
2022-10-11T00:54:12.030Z,38
2022-10-11T00:55:16.251Z,25
2022-10-11T00:56:20.629Z,35
2022-10-11T00:57:24.747Z,38
2022-10-11T00:58:29.074Z,31
2022-10-11T00:59:34.180Z,33
2022-10-11T01:00:38.650Z,39
2022-10-11T01:01:43.781Z,41
2022-10-11T01:02:48.137Z,39
2022-10-11T01:03:52.490Z,42
2022-10-11T01:05:11.589Z,42
2022-10-11T01:06:01.692Z,37
2022-10-11T01:07:05.974Z,44
2022-10-11T01:08:10.211Z,34
2022-10-11T01:09:14.474Z,44
2022-10-11T01:10:18.730Z,39
2022-10-11T01:11:23.686Z,38
2022-10-11T01:12:28.682Z,39
2022-10-11T01:13:33.030Z,39
2022-10-11T01:14:45.530Z,47
2022-10-11T01:16:00.099Z,36
2022-10-11T01:17:12.550Z,40
2022-10-11T01:18:21.895Z,51
2022-10-11T01:19:36.802Z,41
2022-10-11T01:20:48.834Z,38
2022-10-11T01:21:55.886Z,37
2022-10-11T01:23:05.178Z,31
2022-10-11T01:24:14.517Z,35
2022-10-11T01:25:28.934Z,39
2022-10-11T01:26:40.914Z,33
2022-10-11T01:27:55.778Z,32
2022-10-11T01:29:05.066Z,27
2022-10-11T01:30:14.433Z,26
2022-10-11T01:31:23.786Z,29
2022-10-11T01:32:33.763Z,27
2022-10-11T01:33:43.920Z,25
2022-10-11T01:34:53.762Z,25
2022-10-11T01:36:04.102Z,27
2022-10-11T01:37:08.808Z,27
2022-10-11T01:38:15.842Z,31
2022-10-11T01:39:30.482Z,30
2022-10-11T01:40:39.948Z,27
2022-10-11T01:41:49.953Z,25
2022-10-11T01:43:57.689Z,25
2022-10-11T01:45:02.891Z,26
2022-10-11T01:46:09.894Z,25
2022-10-11T01:47:14.602Z,26
2022-10-11T01:48:21.681Z,44
2022-10-11T01:49:26.922Z,40
2022-10-11T01:50:31.503Z,35
2022-10-11T01:51:38.889Z,42
2022-10-11T01:52:43.758Z,38
2022-10-11T01:53:48.534Z,39
2022-10-11T01:55:10.815Z,41
2022-10-11T01:56:05.299Z,43
2022-10-11T01:57:19.586Z,44
2022-10-11T01:58:29.502Z,37
2022-10-11T01:59:43.858Z,50
2022-10-11T02:00:58.886Z,52
2022-10-11T02:02:08.250Z,52
2022-10-11T02:03:17.758Z,54
2022-10-11T02:04:30.249Z,45
2022-10-11T02:05:34.470Z,48
2022-10-11T02:07:50.029Z,52
2022-10-11T02:08:57.142Z,56
2022-10-11T02:10:01.678Z,57
2022-10-11T02:11:14.919Z,52
2022-10-11T02:12:25.072Z,51
2022-10-11T02:13:29.293Z,56
2022-10-11T02:14:38.666Z,60
2022-10-11T02:15:42.897Z,48
2022-10-11T02:16:47.397Z,51
2022-10-11T02:17:54.662Z,56
2022-10-11T02:18:58.888Z,51
2022-10-11T02:20:03.922Z,53
2022-10-11T02:22:12.086Z,54
2022-10-11T02:23:16.290Z,56
2022-10-11T02:24:23.654Z,56
2022-10-11T02:26:36.427Z,51
2022-10-11T02:28:44.913Z,54
2022-10-11T02:29:49.162Z,63
2022-10-11T02:30:53.481Z,57
2022-10-11T02:31:57.614Z,59
2022-10-11T02:33:01.955Z,63
2022-10-11T02:34:06.190Z,54
2022-10-11T02:35:13.004Z,55
2022-10-11T02:36:17.261Z,63
2022-10-11T02:37:24.169Z,61
2022-10-11T02:39:39.791Z,64
2022-10-11T02:40:46.826Z,71
2022-10-11T02:41:56.451Z,74
2022-10-11T02:43:00.709Z,68
2022-10-11T02:44:12.880Z,73
2022-10-11T02:46:30.677Z,83
2022-10-11T02:47:34.938Z,70
2022-10-11T02:48:39.777Z,67
2022-10-11T02:49:45.342Z,71
2022-10-11T02:50:50.378Z,74
2022-10-11T02:51:54.702Z,71
2022-10-11T02:52:58.893Z,67
2022-10-11T02:54:04.326Z,76
2022-10-11T02:55:08.803Z,72
2022-10-11T02:56:13.330Z,76
2022-10-11T02:57:17.634Z,78
2022-10-11T02:58:22.090Z,77
2022-10-11T02:59:26.419Z,82
2022-10-11T03:00:30.817Z,79
2022-10-11T03:01:35.155Z,83
2022-10-11T03:02:39.408Z,85
2022-10-11T03:03:43.765Z,85
2022-10-11T03:04:48.817Z,82
2022-10-11T03:05:53.585Z,86
2022-10-11T03:07:01.386Z,81
2022-10-11T03:08:06.061Z,90
2022-10-11T03:09:10.365Z,89
2022-10-11T03:10:15.073Z,88
2022-10-11T03:11:19.390Z,92
2022-10-11T03:12:23.698Z,99
2022-10-11T03:13:27.859Z,88
2022-10-11T03:14:32.843Z,90
2022-10-11T03:15:37.930Z,89
2022-10-11T03:16:42.234Z,98
2022-10-11T03:17:47.340Z,97
2022-10-11T03:18:52.893Z,96
2022-10-11T03:19:57.341Z,90
2022-10-11T03:21:01.957Z,107
2022-10-11T03:22:06.257Z,109
2022-10-11T03:23:10.725Z,108
2022-10-11T03:24:15.509Z,109
2022-10-11T03:25:19.898Z,112
2022-10-11T03:26:24.626Z,114
2022-10-11T03:27:28.784Z,112
2022-10-11T03:28:33.753Z,114
2022-10-11T03:29:38.243Z,113
2022-10-11T03:30:42.493Z,115
2022-10-11T03:31:49.845Z,105
2022-10-11T03:33:58.141Z,119
2022-10-11T03:35:02.959Z,118
2022-10-11T03:36:08.310Z,114
2022-10-11T03:37:12.583Z,111
2022-10-11T03:38:16.914Z,114
2022-10-11T03:39:21.220Z,124
2022-10-11T03:40:26.126Z,115
2022-10-11T03:41:30.769Z,109
2022-10-11T03:42:35.089Z,111
2022-10-11T03:44:43.925Z,120
2022-10-11T03:45:48.182Z,116
2022-10-11T03:46:52.439Z,122
2022-10-11T03:47:56.899Z,123
2022-10-11T03:49:01.342Z,124
2022-10-11T03:50:05.620Z,118
2022-10-11T03:51:10.198Z,116
2022-10-11T03:52:14.441Z,126
2022-10-11T03:53:18.859Z,117
2022-10-11T03:54:23.633Z,117
2022-10-11T03:55:27.941Z,123
2022-10-11T03:56:32.317Z,122
2022-10-11T03:57:36.483Z,125
2022-10-11T03:58:41.439Z,115
2022-10-11T03:59:46.123Z,124
2022-10-11T04:00:50.465Z,114
2022-10-11T04:01:54.881Z,121
2022-10-11T04:02:59.705Z,119
2022-10-11T04:04:07.029Z,118
2022-10-11T04:05:11.335Z,121
2022-10-11T04:06:15.638Z,118
2022-10-11T04:07:20.086Z,117
2022-10-11T04:08:24.477Z,117
2022-10-11T04:09:29.237Z,113
2022-10-11T04:10:33.674Z,110
2022-10-11T04:11:38.049Z,122
2022-10-11T04:12:42.686Z,119
2022-10-11T04:13:47.081Z,118
2022-10-11T04:14:51.545Z,121
2022-10-11T04:15:55.977Z,111
2022-10-11T04:17:00.743Z,123
2022-10-11T04:18:04.793Z,117
2022-10-11T04:19:09.029Z,114
2022-10-11T04:20:13.725Z,112
2022-10-11T04:21:18.313Z,114
2022-10-11T04:23:26.137Z,117
2022-10-11T04:24:32.993Z,114
2022-10-11T04:25:37.438Z,114
2022-10-11T04:26:42.537Z,120
2022-10-11T04:27:46.940Z,128
2022-10-11T04:28:51.561Z,131
2022-10-11T04:29:56.158Z,143
2022-10-11T04:31:00.409Z,152
2022-10-11T04:32:04.805Z,155
2022-10-11T04:33:09.035Z,156
2022-10-11T04:34:14.005Z,160
2022-10-11T04:35:18.582Z,150
2022-10-11T04:36:22.897Z,156
2022-10-11T04:37:27.385Z,159
2022-10-11T04:38:31.686Z,169
2022-10-11T04:39:36.531Z,162
2022-10-11T04:40:41.102Z,161
2022-10-11T04:41:46.667Z,171
2022-10-11T04:42:51.285Z,175
2022-10-11T04:43:55.751Z,175
2022-10-11T04:45:00.239Z,169
2022-10-11T04:46:04.887Z,172
2022-10-11T04:47:08.750Z,169
2022-10-11T04:48:13.233Z,181
2022-10-11T04:49:17.567Z,174
2022-10-11T04:50:21.985Z,178
2022-10-11T04:51:26.334Z,173
2022-10-11T04:52:30.775Z,174
2022-10-11T04:53:34.913Z,174
2022-10-11T04:54:39.189Z,174
2022-10-11T04:55:44.548Z,173
2022-10-11T04:56:59.071Z,169
2022-10-11T04:58:03.364Z,171
2022-10-11T04:59:07.842Z,167
2022-10-11T05:00:12.114Z,164
2022-10-11T05:01:16.845Z,160
2022-10-11T05:02:21.266Z,163
2022-10-11T05:03:25.697Z,160
2022-10-11T05:04:29.909Z,159
2022-10-11T05:05:34.425Z,158
2022-10-11T05:06:38.975Z,158
2022-10-11T05:07:43.325Z,152
2022-10-11T05:08:47.945Z,147
2022-10-11T05:09:52.213Z,144
2022-10-11T05:10:56.514Z,144
2022-10-11T05:12:03.541Z,145
2022-10-11T05:13:07.807Z,154
2022-10-11T05:14:12.195Z,145
2022-10-11T05:15:16.621Z,143
2022-10-11T05:16:21.509Z,139
2022-10-11T05:17:25.834Z,141
2022-10-11T05:19:33.771Z,138
2022-10-11T05:20:37.870Z,134
2022-10-11T05:21:42.115Z,141
2022-10-11T05:22:46.267Z,137
2022-10-11T05:23:50.613Z,127
2022-10-11T05:24:54.881Z,132
2022-10-11T05:26:00.141Z,137
2022-10-11T05:27:04.549Z,133
2022-10-11T05:28:09.233Z,133
2022-10-11T05:29:13.441Z,129
2022-10-11T05:30:17.826Z,129
2022-10-11T05:31:22.226Z,133
2022-10-11T05:32:27.953Z,139
2022-10-11T05:33:31.031Z,138
2022-10-11T05:34:35.390Z,132
2022-10-11T05:35:39.629Z,133
2022-10-11T05:36:43.932Z,125
2022-10-11T05:37:48.233Z,132
2022-10-11T05:38:52.485Z,130
2022-10-11T05:39:56.834Z,123
2022-10-11T05:41:01.781Z,122
2022-10-11T05:42:09.699Z,126
2022-10-11T05:43:10.769Z,116
2022-10-11T05:44:15.041Z,117
2022-10-11T05:45:19.374Z,121
2022-10-11T05:46:23.797Z,122
2022-10-11T05:47:28.208Z,121
2022-10-11T05:48:32.574Z,118
2022-10-11T05:49:36.881Z,127
2022-10-11T05:50:41.105Z,128
2022-10-11T05:51:45.425Z,127
2022-10-11T05:52:50.265Z,127
2022-10-11T05:53:54.523Z,119
2022-10-11T05:54:58.810Z,116
2022-10-11T05:56:03.683Z,113
2022-10-11T05:57:07.837Z,108
2022-10-11T05:58:12.078Z,110
2022-10-11T05:59:16.497Z,111
2022-10-11T06:00:20.809Z,116
2022-10-11T06:01:25.799Z,108
2022-10-11T06:02:30.105Z,114
2022-10-11T06:03:34.689Z,115
2022-10-11T06:04:38.869Z,117
2022-10-11T06:05:43.121Z,107
2022-10-11T06:07:50.949Z,119
2022-10-11T06:08:55.193Z,121
2022-10-11T06:09:59.606Z,116
2022-10-11T06:11:03.994Z,115
2022-10-11T06:12:11.276Z,121
2022-10-11T06:14:19.270Z,121
2022-10-11T06:15:23.805Z,113
2022-10-11T06:16:28.221Z,119
2022-10-11T06:17:33.999Z,117
2022-10-11T06:18:38.457Z,116
2022-10-11T06:19:43.313Z,117
2022-10-11T06:20:47.670Z,123
2022-10-11T06:21:51.918Z,111
2022-10-11T06:22:56.273Z,121
2022-10-11T06:24:01.612Z,113
2022-10-11T06:25:05.730Z,112
2022-10-11T06:26:10.486Z,128
2022-10-11T06:27:14.579Z,119
2022-10-11T06:28:18.931Z,119
2022-10-11T06:29:23.120Z,119
2022-10-11T06:30:27.756Z,119
2022-10-11T06:31:32.276Z,113
2022-10-11T06:32:36.656Z,109
2022-10-11T06:33:41.225Z,110
2022-10-11T06:34:45.492Z,106
2022-10-11T06:35:49.775Z,112
2022-10-11T06:36:59.223Z,103
2022-10-11T06:38:03.584Z,110
2022-10-11T06:39:07.867Z,103
2022-10-11T06:40:12.130Z,97
2022-10-11T06:41:16.481Z,98
2022-10-11T06:42:20.751Z,98
2022-10-11T06:43:25.023Z,102
2022-10-11T06:44:29.475Z,103
2022-10-11T06:45:34.092Z,100
2022-10-11T06:46:38.892Z,94
2022-10-11T06:47:43.603Z,97
2022-10-11T06:48:48.041Z,98
2022-10-11T06:49:52.296Z,93
2022-10-11T06:50:59.817Z,94
2022-10-11T06:52:01.303Z,100
2022-10-11T06:53:05.647Z,93
2022-10-11T06:54:10.059Z,93
2022-10-11T06:55:15.191Z,95
2022-10-11T06:56:19.512Z,95
2022-10-11T06:57:24.031Z,91
2022-10-11T06:58:28.763Z,88
2022-10-11T06:59:33.160Z,92
2022-10-11T07:00:37.649Z,95
2022-10-11T07:01:42.284Z,95
2022-10-11T07:02:46.691Z,101
2022-10-11T07:03:51.004Z,98
2022-10-11T07:04:55.371Z,94
2022-10-11T07:06:02.364Z,100
2022-10-11T07:07:07.168Z,104
2022-10-11T07:08:11.403Z,104
2022-10-11T07:09:15.606Z,96
2022-10-11T07:10:20.096Z,102
2022-10-11T07:11:24.489Z,108
2022-10-11T07:12:28.799Z,108
2022-10-11T07:13:33.117Z,103
2022-10-11T07:14:37.386Z,104
2022-10-11T07:15:41.615Z,108
2022-10-11T07:16:45.797Z,101
2022-10-11T07:17:49.931Z,104
2022-10-11T07:18:58.928Z,103
2022-10-11T07:20:04.959Z,98
2022-10-11T07:21:12.491Z,106
2022-10-11T07:22:16.779Z,96
2022-10-11T07:23:20.932Z,103
2022-10-11T07:24:25.728Z,101
2022-10-11T07:25:30.735Z,108
2022-10-11T07:26:38.373Z,105
2022-10-11T07:27:39.324Z,103
2022-10-11T07:28:43.647Z,103
2022-10-11T07:29:47.727Z,105
2022-10-11T07:30:52.259Z,97
2022-10-11T07:31:56.735Z,104
2022-10-11T07:33:01.022Z,99
2022-10-11T07:34:05.297Z,102
2022-10-11T07:35:09.398Z,96
2022-10-11T07:36:13.810Z,99
2022-10-11T07:37:18.115Z,103
2022-10-11T07:38:22.272Z,103
2022-10-11T07:39:26.431Z,94
2022-10-11T07:40:30.999Z,98
2022-10-11T07:41:35.294Z,102
2022-10-11T07:42:39.651Z,101
2022-10-11T07:43:44.093Z,98
2022-10-11T07:44:48.235Z,99
2022-10-11T07:45:52.471Z,103
2022-10-11T07:46:56.730Z,97
2022-10-11T07:48:00.963Z,92
2022-10-11T07:49:05.214Z,95
2022-10-11T07:50:09.494Z,91
2022-10-11T07:51:13.814Z,96
2022-10-11T07:53:22.153Z,100
2022-10-11T07:54:26.419Z,105
2022-10-11T07:55:30.710Z,87
2022-10-11T07:56:35.083Z,96
2022-10-11T07:57:39.455Z,96
2022-10-11T07:58:43.743Z,99
2022-10-11T07:59:51.087Z,100
2022-10-11T08:00:55.455Z,103
2022-10-11T08:01:59.817Z,107
2022-10-11T08:03:03.986Z,100
2022-10-11T08:04:08.295Z,104
2022-10-11T08:05:12.402Z,106
2022-10-11T08:06:16.760Z,114
2022-10-11T08:07:20.978Z,109
2022-10-11T08:08:25.319Z,115
2022-10-11T08:09:29.632Z,105
2022-10-11T08:10:34.111Z,110
2022-10-11T08:11:41.738Z,114
2022-10-11T08:12:46.003Z,114
2022-10-11T08:13:51.569Z,116
2022-10-11T08:14:55.872Z,113
2022-10-11T08:16:00.351Z,120
2022-10-11T08:17:04.545Z,118
2022-10-11T08:18:08.798Z,109
2022-10-11T08:19:12.978Z,120
2022-10-11T08:20:17.102Z,124
2022-10-11T08:21:21.457Z,131
2022-10-11T08:22:25.782Z,118
2022-10-11T08:23:30.207Z,119
2022-10-11T08:24:38.116Z,112
2022-10-11T08:25:38.791Z,112
2022-10-11T08:26:43.054Z,115
2022-10-11T08:27:47.291Z,116
2022-10-11T08:28:51.935Z,109
2022-10-11T08:29:56.216Z,111
2022-10-11T08:31:00.619Z,117
2022-10-11T08:32:04.867Z,117
2022-10-11T08:33:09.019Z,117
2022-10-11T08:34:13.371Z,130
2022-10-11T08:35:17.915Z,118
2022-10-11T08:36:22.283Z,114
2022-10-11T08:37:26.589Z,109
2022-10-11T08:38:30.848Z,108
2022-10-11T08:39:35.071Z,108
2022-10-11T08:40:39.362Z,108
2022-10-11T08:41:51.592Z,109
2022-10-11T08:42:55.804Z,108
2022-10-11T08:43:59.931Z,118
2022-10-11T08:45:11.703Z,109
2022-10-11T08:46:11.575Z,111
2022-10-11T08:47:15.794Z,104
2022-10-11T08:48:28.106Z,108
2022-10-11T08:49:35.278Z,106
2022-10-11T08:50:39.715Z,105
2022-10-11T08:51:44.169Z,118
2022-10-11T08:52:48.604Z,112
2022-10-11T08:54:03.498Z,109
2022-10-11T08:55:07.771Z,104
2022-10-11T08:56:17.127Z,107
2022-10-11T08:57:21.451Z,109
2022-10-11T08:58:25.722Z,108
2022-10-11T08:59:35.006Z,105
2022-10-11T09:00:50.130Z,109
2022-10-11T09:01:54.482Z,117
2022-10-11T09:03:09.647Z,118
2022-10-11T09:04:13.664Z,121
2022-10-11T09:05:17.932Z,119
2022-10-11T09:06:22.330Z,117
2022-10-11T09:07:31.854Z,105
2022-10-11T09:08:46.464Z,114
2022-10-11T09:09:50.848Z,112
2022-10-11T09:10:58.164Z,105
2022-10-11T09:12:05.361Z,106
2022-10-11T09:13:14.972Z,111
2022-10-11T09:14:29.544Z,99
2022-10-11T09:15:39.765Z,104
2022-10-11T09:16:46.896Z,104
2022-10-11T09:18:01.553Z,105
2022-10-11T09:19:11.001Z,105
2022-10-11T09:20:23.253Z,105
2022-10-11T09:21:38.165Z,107
2022-10-11T09:22:42.711Z,113
2022-10-11T09:23:52.771Z,103
2022-10-11T09:25:02.352Z,103
2022-10-11T09:26:14.676Z,110
2022-10-11T09:27:50.136Z,102
2022-10-11T09:28:31.773Z,117
2022-10-11T09:29:41.201Z,100
2022-10-11T09:30:55.849Z,108
2022-10-11T09:32:00.132Z,107
2022-10-11T09:33:04.617Z,108
2022-10-11T09:34:12.069Z,102
2022-10-11T09:35:16.552Z,100
2022-10-11T09:36:22.163Z,101
2022-10-11T09:37:36.788Z,100
2022-10-11T09:38:51.409Z,97
2022-10-11T09:39:55.912Z,102
2022-10-11T09:41:03.315Z,101
2022-10-11T09:42:12.784Z,100
2022-10-11T09:43:17.172Z,96
2022-10-11T09:44:21.645Z,94
2022-10-11T09:45:25.997Z,105
2022-10-11T09:46:30.416Z,97
2022-10-11T09:47:42.807Z,92
2022-10-11T09:48:47.272Z,85
2022-10-11T09:49:51.675Z,83
2022-10-11T09:51:01.799Z,93
2022-10-11T09:52:06.127Z,89
2022-10-11T09:53:13.111Z,91
2022-10-11T09:54:17.575Z,88
2022-10-11T09:55:21.848Z,99
2022-10-11T09:56:31.193Z,95
2022-10-11T09:57:35.429Z,87
2022-10-11T09:58:39.819Z,92
2022-10-11T09:59:44.355Z,85
2022-10-11T10:01:00.932Z,81
2022-10-11T10:02:06.294Z,82
2022-10-11T10:03:13.270Z,81
2022-10-11T10:04:17.683Z,82
2022-10-11T10:05:22.116Z,84
2022-10-11T10:06:31.570Z,83
2022-10-11T10:07:36.314Z,82
2022-10-11T10:08:40.699Z,90
2022-10-11T10:09:45.166Z,91
2022-10-11T10:10:49.593Z,88
2022-10-11T10:12:05.396Z,83
2022-10-11T10:13:12.627Z,84
2022-10-11T10:14:22.266Z,89
2022-10-11T10:15:26.827Z,82
2022-10-11T10:16:31.322Z,84
2022-10-11T10:17:35.578Z,81
2022-10-11T10:18:40.028Z,81
2022-10-11T10:19:45.334Z,77
2022-10-11T10:20:51.514Z,70
2022-10-11T10:21:55.803Z,81
2022-10-11T10:23:00.127Z,70
2022-10-11T10:24:12.203Z,78
2022-10-11T10:26:23.055Z,83
2022-10-11T10:27:27.322Z,74
2022-10-11T10:28:31.649Z,78
2022-10-11T10:29:35.958Z,70
2022-10-11T10:30:40.419Z,69
2022-10-11T10:32:13.732Z,72
2022-10-11T10:32:59.519Z,68
2022-10-11T10:34:06.847Z,67
2022-10-11T10:35:14.139Z,65
2022-10-11T10:37:34.996Z,57
2022-10-11T10:38:41.875Z,73
2022-10-11T10:39:46.238Z,75
2022-10-11T10:41:01.376Z,66
2022-10-11T10:42:05.822Z,77
2022-10-11T10:43:15.191Z,64
2022-10-11T10:44:19.540Z,54
2022-10-11T10:45:23.787Z,63
2022-10-11T10:46:28.154Z,59
2022-10-11T10:47:37.627Z,64
2022-10-11T10:50:06.408Z,65
2022-10-11T10:51:15.759Z,66
2022-10-11T10:52:22.783Z,57
2022-10-11T10:53:35.079Z,56
2022-10-11T10:54:42.451Z,53
2022-10-11T10:55:51.843Z,57
2022-10-11T10:57:01.882Z,55
2022-10-11T10:58:18.858Z,50
2022-10-11T10:59:20.775Z,49
2022-10-11T11:00:30.200Z,45
2022-10-11T11:01:37.481Z,41
2022-10-11T11:02:52.233Z,25
2022-10-11T11:04:01.505Z,32
2022-10-11T11:05:08.639Z,29
2022-10-11T11:06:23.116Z,27
2022-10-11T11:07:32.485Z,33
2022-10-11T11:08:39.458Z,32
2022-10-11T11:09:48.894Z,44
2022-10-11T11:11:03.319Z,28
2022-10-11T11:12:12.695Z,26
2022-10-11T11:13:22.647Z,30
2022-10-11T11:14:26.999Z,32
2022-10-11T11:15:37.706Z,28
2022-10-11T11:16:38.482Z,27
2022-10-11T11:17:53.354Z,29
2022-10-11T11:19:02.366Z,26
2022-10-11T11:20:16.748Z,30
2022-10-11T11:21:24.131Z,25
2022-10-11T11:22:36.587Z,32
2022-10-11T11:23:48.774Z,37
2022-10-11T11:24:58.398Z,25
2022-10-11T11:26:08.658Z,35
2022-10-11T11:27:15.454Z,33
2022-10-11T11:28:25.464Z,51
2022-10-11T11:29:39.835Z,33
2022-10-11T11:30:49.328Z,26
2022-10-11T11:31:56.650Z,32
2022-10-11T11:33:08.742Z,25
2022-10-11T11:34:20.882Z,26
2022-10-11T11:35:28.004Z,27
2022-10-11T11:36:32.243Z,33
2022-10-11T11:37:41.501Z,25
2022-10-11T11:38:46.226Z,37
2022-10-11T11:39:53.544Z,25
2022-10-11T11:40:57.775Z,29
2022-10-11T11:42:01.959Z,50
2022-10-11T11:43:06.366Z,25
2022-10-11T11:44:13.834Z,34
2022-10-11T11:45:23.198Z,30
2022-10-11T11:46:37.611Z,35
2022-10-11T11:47:48.133Z,34
2022-10-11T11:50:01.574Z,33
2022-10-11T11:51:06.219Z,40
2022-10-11T11:52:10.670Z,30
2022-10-11T11:53:17.805Z,25
2022-10-11T11:54:24.676Z,25
2022-10-11T11:55:39.232Z,28
2022-10-11T11:56:46.258Z,28
2022-10-11T11:58:04.671Z,31
2022-10-11T11:59:05.542Z,30
2022-10-11T12:00:09.970Z,30
2022-10-11T12:01:22.496Z,34
2022-10-11T12:02:34.924Z,34
2022-10-11T12:03:44.462Z,30
2022-10-11T12:04:48.850Z,30
2022-10-11T12:05:53.171Z,25
2022-10-11T12:07:16.620Z,25
2022-10-11T12:08:12.550Z,25
2022-10-11T12:09:22.910Z,25
2022-10-11T12:10:27.416Z,25
2022-10-11T12:11:37.070Z,25
2022-10-11T12:12:41.495Z,27
2022-10-11T12:13:45.902Z,39
2022-10-11T12:14:50.654Z,40
2022-10-11T12:16:03.044Z,41
2022-10-11T12:17:07.585Z,40
2022-10-11T12:18:16.983Z,31
2022-10-11T12:19:21.619Z,25
2022-10-11T12:20:26.256Z,25
2022-10-11T12:21:36.083Z,46
2022-10-11T12:22:40.630Z,40
2022-10-11T12:23:50.102Z,33
2022-10-11T12:24:54.690Z,25
2022-10-11T12:25:59.043Z,27
2022-10-11T12:27:13.838Z,25
2022-10-11T12:28:28.377Z,35
2022-10-11T12:29:38.113Z,27
2022-10-11T12:30:45.216Z,34
2022-10-11T12:32:58.448Z,27
2022-10-11T12:34:08.336Z,40
2022-10-11T12:35:22.759Z,46
2022-10-11T12:36:32.211Z,25
2022-10-11T12:37:39.334Z,54
2022-10-11T12:38:43.644Z,25
2022-10-11T12:39:48.008Z,37
2022-10-11T12:40:55.621Z,34
2022-10-11T12:42:05.959Z,32
2022-10-11T12:43:09.258Z,25
2022-10-11T12:44:16.596Z,25
2022-10-11T12:45:26.976Z,25
2022-10-11T12:46:31.460Z,26
2022-10-11T12:47:41.845Z,27
2022-10-11T12:48:51.117Z,29
2022-10-11T12:49:55.479Z,35
2022-10-11T12:51:05.389Z,32
2022-10-11T12:52:17.994Z,34
2022-10-11T12:53:25.276Z,30
2022-10-11T12:54:37.190Z,30
2022-10-11T12:55:49.007Z,27
2022-10-11T12:56:58.585Z,30
2022-10-11T12:58:10.920Z,41
2022-10-11T12:59:25.481Z,25
2022-10-11T13:00:29.891Z,35
2022-10-11T13:01:34.224Z,25
2022-10-11T13:02:39.277Z,25
2022-10-11T13:03:43.705Z,25
2022-10-11T13:04:53.425Z,44
2022-10-11T13:06:08.149Z,32
2022-10-11T13:07:20.204Z,35
2022-10-11T13:08:24.569Z,40
2022-10-11T13:09:31.709Z,34
2022-10-11T13:10:36.228Z,34
2022-10-11T13:11:40.681Z,43
2022-10-11T13:12:47.632Z,33
2022-10-11T13:13:52.496Z,25
2022-10-11T13:14:57.009Z,25
2022-10-11T13:16:01.207Z,40
2022-10-11T13:17:11.296Z,41
2022-10-11T13:18:25.704Z,35
2022-10-11T13:19:30.199Z,32
2022-10-11T13:20:36.099Z,43
2022-10-11T13:21:38.940Z,38
2022-10-11T13:22:43.184Z,25
2022-10-11T13:23:47.722Z,27
2022-10-11T13:24:52.081Z,27
2022-10-11T13:25:56.516Z,31
2022-10-11T13:27:01.348Z,28
2022-10-11T13:28:06.149Z,34
2022-10-11T13:29:10.476Z,31
2022-10-11T13:30:14.828Z,27
2022-10-11T13:31:20.788Z,28
2022-10-11T13:32:25.200Z,46
2022-10-11T13:33:29.520Z,27
2022-10-11T13:34:35.331Z,49
2022-10-11T13:35:38.435Z,25
2022-10-11T13:36:42.672Z,28
2022-10-11T13:37:47.163Z,41
2022-10-11T13:38:51.628Z,45
2022-10-11T13:39:58.854Z,41
2022-10-11T13:41:03.731Z,29
2022-10-11T13:42:08.144Z,38
2022-10-11T13:43:12.664Z,42
2022-10-11T13:44:16.924Z,25
2022-10-11T13:45:21.224Z,43
2022-10-11T13:46:25.467Z,37
2022-10-11T13:47:29.708Z,29
2022-10-11T13:48:34.099Z,37
2022-10-11T13:49:41.632Z,27
2022-10-11T13:50:46.122Z,25
2022-10-11T13:52:00.691Z,29
2022-10-11T13:53:05.385Z,32
2022-10-11T13:54:13.891Z,35
2022-10-11T13:55:17.251Z,25
2022-10-11T13:56:24.438Z,31
2022-10-11T13:57:29.123Z,38
2022-10-11T13:58:43.813Z,41
2022-10-11T13:59:48.206Z,51
2022-10-11T14:00:53.741Z,45
2022-10-11T14:01:58.157Z,28
2022-10-11T14:03:02.438Z,27
2022-10-11T14:04:12.122Z,25
2022-10-11T14:05:19.215Z,31
2022-10-11T14:06:31.625Z,33
2022-10-11T14:07:41.742Z,36
2022-10-11T14:08:46.214Z,34
2022-10-11T14:09:50.722Z,39
2022-10-11T14:10:57.335Z,47
2022-10-11T14:11:59.491Z,50
2022-10-11T14:13:13.851Z,51
2022-10-11T14:14:26.141Z,52
2022-10-11T14:15:33.296Z,45
2022-10-11T14:16:37.682Z,53
2022-10-11T14:17:41.991Z,57
2022-10-11T14:18:46.606Z,41
2022-10-11T14:20:03.960Z,48
2022-10-11T14:21:03.308Z,60
2022-10-11T14:22:18.398Z,49
2022-10-11T14:23:22.786Z,57
2022-10-11T14:24:27.003Z,40
2022-10-11T14:25:31.488Z,50
2022-10-11T14:26:35.914Z,46
2022-10-11T14:27:40.362Z,45
2022-10-11T14:28:44.895Z,39
2022-10-11T14:30:20.110Z,37
2022-10-11T14:30:58.786Z,41
2022-10-11T14:32:03.242Z,50
2022-10-11T14:33:10.298Z,51
2022-10-11T14:34:14.546Z,41
2022-10-11T14:35:21.605Z,55
2022-10-11T14:36:26.058Z,36
2022-10-11T14:37:30.480Z,31
2022-10-11T14:38:34.798Z,39
2022-10-11T14:39:39.062Z,27
2022-10-11T14:40:44.435Z,38
2022-10-11T14:41:48.683Z,40
2022-10-11T14:42:53.710Z,36
2022-10-11T14:43:58.275Z,37
2022-10-11T14:45:02.595Z,27
2022-10-11T14:46:07.518Z,30
2022-10-11T14:47:19.363Z,31
2022-10-11T14:48:36.923Z,31
2022-10-11T14:49:28.102Z,30
2022-10-11T14:50:32.987Z,31
2022-10-11T14:51:45.234Z,36
2022-10-11T14:52:49.686Z,25
2022-10-11T14:53:54.236Z,29
2022-10-11T14:54:58.518Z,33
2022-10-11T14:56:03.346Z,29
2022-10-11T14:57:07.886Z,30
2022-10-11T14:58:12.301Z,36
2022-10-11T14:59:16.824Z,29
2022-10-11T15:00:21.063Z,33
2022-10-11T15:01:25.464Z,37
2022-10-11T15:02:29.722Z,29
2022-10-11T15:03:34.123Z,27
2022-10-11T15:04:38.606Z,29
2022-10-11T15:05:43.118Z,28
2022-10-11T15:06:47.614Z,42
2022-10-11T15:07:52.638Z,36
2022-10-11T15:08:57.234Z,39
2022-10-11T15:10:01.603Z,35
2022-10-11T15:11:05.852Z,38
2022-10-11T15:12:11.075Z,41
2022-10-11T15:13:15.645Z,34
2022-10-11T15:14:20.178Z,36
2022-10-11T15:15:24.492Z,34
2022-10-11T15:16:28.694Z,36
2022-10-11T15:17:32.914Z,32
2022-10-11T15:18:38.187Z,34
2022-10-11T15:19:42.542Z,36
2022-10-11T15:20:46.842Z,32
2022-10-11T15:21:51.670Z,38
2022-10-11T15:22:56.461Z,34
2022-10-11T15:24:00.938Z,36
2022-10-11T15:25:05.334Z,44
2022-10-11T15:26:09.778Z,40
2022-10-11T15:27:17.178Z,44
2022-10-11T15:28:21.542Z,31
2022-10-11T15:29:28.553Z,37
2022-10-11T15:30:35.999Z,35
2022-10-11T15:31:37.460Z,45
2022-10-11T15:32:41.790Z,39
2022-10-11T15:33:46.110Z,30
2022-10-11T15:34:50.563Z,42
2022-10-11T15:35:55.710Z,39
2022-10-11T15:37:00.122Z,32
2022-10-11T15:38:04.509Z,39
2022-10-11T15:39:08.802Z,36
2022-10-11T15:40:23.982Z,34
2022-10-11T15:41:28.709Z,38
2022-10-11T15:42:32.966Z,40
2022-10-11T15:43:37.557Z,42
2022-10-11T15:44:42.667Z,42
2022-10-11T15:45:47.354Z,41
2022-10-11T15:46:51.654Z,54
2022-10-11T15:47:56.209Z,54
2022-10-11T15:49:04.540Z,48
2022-10-11T15:50:05.346Z,61